sensor_id;sensor_type;location;lat;lon;timestamp;P1;durP1;ratioP1;P2;durP2;ratioP2
3159;SDS011;1591;51.486;7.146;2022-11-18T00:00:45;2.70;;;1.87;;
3159;SDS011;1591;51.486;7.146;2022-11-18T00:03:12;4.30;;;2.17;;
3159;SDS011;1591;51.486;7.146;2022-11-18T00:05:39;3.13;;;1.70;;
3159;SDS011;1591;51.486;7.146;2022-11-18T00:08:07;3.83;;;2.20;;
3159;SDS011;1591;51.486;7.146;2022-11-18T00:10:35;8.30;;;2.10;;
3159;SDS011;1591;51.486;7.146;2022-11-18T00:13:03;4.83;;;2.00;;
3159;SDS011;1591;51.486;7.146;2022-11-18T00:15:48;2.30;;;1.57;;
3159;SDS011;1591;51.486;7.146;2022-11-18T00:18:15;2.80;;;1.90;;
3159;SDS011;1591;51.486;7.146;2022-11-18T00:20:42;2.40;;;1.80;;
3159;SDS011;1591;51.486;7.146;2022-11-18T00:23:10;2.90;;;1.67;;
3159;SDS011;1591;51.486;7.146;2022-11-18T00:25:37;3.33;;;1.83;;
3159;SDS011;1591;51.486;7.146;2022-11-18T00:28:04;4.90;;;2.07;;
3159;SDS011;1591;51.486;7.146;2022-11-18T00:30:33;6.13;;;1.77;;
3159;SDS011;1591;51.486;7.146;2022-11-18T00:33:00;4.37;;;1.70;;
3159;SDS011;1591;51.486;7.146;2022-11-18T00:35:27;2.87;;;1.50;;
3159;SDS011;1591;51.486;7.146;2022-11-18T00:37:54;1.77;;;1.63;;
3159;SDS011;1591;51.486;7.146;2022-11-18T00:40:23;3.10;;;1.70;;
3159;SDS011;1591;51.486;7.146;2022-11-18T00:42:50;1.83;;;1.70;;
3159;SDS011;1591;51.486;7.146;2022-11-18T00:45:16;3.07;;;1.40;;
3159;SDS011;1591;51.486;7.146;2022-11-18T00:47:43;4.90;;;1.73;;
3159;SDS011;1591;51.486;7.146;2022-11-18T00:50:10;4.37;;;2.00;;
3159;SDS011;1591;51.486;7.146;2022-11-18T00:52:39;2.93;;;1.73;;
3159;SDS011;1591;51.486;7.146;2022-11-18T00:55:06;4.67;;;1.90;;
3159;SDS011;1591;51.486;7.146;2022-11-18T00:57:35;5.03;;;1.83;;
3159;SDS011;1591;51.486;7.146;2022-11-18T01:00:03;4.43;;;1.50;;
3159;SDS011;1591;51.486;7.146;2022-11-18T01:02:31;3.20;;;1.40;;
3159;SDS011;1591;51.486;7.146;2022-11-18T01:04:58;5.37;;;2.20;;
3159;SDS011;1591;51.486;7.146;2022-11-18T01:07:25;5.70;;;1.90;;
3159;SDS011;1591;51.486;7.146;2022-11-18T01:09:53;2.10;;;1.80;;
3159;SDS011;1591;51.486;7.146;2022-11-18T01:12:21;6.30;;;1.63;;
3159;SDS011;1591;51.486;7.146;2022-11-18T01:15:08;3.67;;;2.03;;
3159;SDS011;1591;51.486;7.146;2022-11-18T01:17:35;4.87;;;2.07;;
3159;SDS011;1591;51.486;7.146;2022-11-18T01:20:02;4.53;;;1.90;;
3159;SDS011;1591;51.486;7.146;2022-11-18T01:22:30;5.93;;;1.93;;
3159;SDS011;1591;51.486;7.146;2022-11-18T01:24:57;3.77;;;2.20;;
3159;SDS011;1591;51.486;7.146;2022-11-18T01:27:24;3.00;;;1.80;;
3159;SDS011;1591;51.486;7.146;2022-11-18T01:29:51;3.37;;;1.57;;
3159;SDS011;1591;51.486;7.146;2022-11-18T01:32:20;4.50;;;2.10;;
3159;SDS011;1591;51.486;7.146;2022-11-18T01:34:47;5.30;;;1.90;;
3159;SDS011;1591;51.486;7.146;2022-11-18T01:37:14;6.00;;;2.17;;
3159;SDS011;1591;51.486;7.146;2022-11-18T01:39:41;5.33;;;2.43;;
3159;SDS011;1591;51.486;7.146;2022-11-18T01:42:10;7.23;;;2.00;;
3159;SDS011;1591;51.486;7.146;2022-11-18T01:44:57;3.73;;;1.70;;
3159;SDS011;1591;51.486;7.146;2022-11-18T01:47:36;5.03;;;1.90;;
3159;SDS011;1591;51.486;7.146;2022-11-18T01:50:07;3.93;;;2.03;;
3159;SDS011;1591;51.486;7.146;2022-11-18T01:52:35;5.40;;;2.37;;
3159;SDS011;1591;51.486;7.146;2022-11-18T01:55:05;10.40;;;1.80;;
3159;SDS011;1591;51.486;7.146;2022-11-18T01:57:38;4.73;;;2.13;;
3159;SDS011;1591;51.486;7.146;2022-11-18T02:00:07;3.23;;;1.70;;
3159;SDS011;1591;51.486;7.146;2022-11-18T02:02:38;2.57;;;2.00;;
3159;SDS011;1591;51.486;7.146;2022-11-18T02:05:05;4.53;;;1.97;;
3159;SDS011;1591;51.486;7.146;2022-11-18T02:07:36;4.70;;;2.20;;
3159;SDS011;1591;51.486;7.146;2022-11-18T02:10:09;6.40;;;2.20;;
3159;SDS011;1591;51.486;7.146;2022-11-18T02:12:45;11.80;;;2.37;;
3159;SDS011;1591;51.486;7.146;2022-11-18T02:15:12;6.03;;;2.07;;
3159;SDS011;1591;51.486;7.146;2022-11-18T02:17:46;5.30;;;2.23;;
3159;SDS011;1591;51.486;7.146;2022-11-18T02:20:23;2.80;;;1.80;;
3159;SDS011;1591;51.486;7.146;2022-11-18T02:23:18;2.80;;;1.90;;
3159;SDS011;1591;51.486;7.146;2022-11-18T02:29:34;3.10;;;1.80;;
3159;SDS011;1591;51.486;7.146;2022-11-18T02:32:08;5.27;;;2.53;;
3159;SDS011;1591;51.486;7.146;2022-11-18T02:34:39;3.50;;;1.90;;
3159;SDS011;1591;51.486;7.146;2022-11-18T02:37:16;4.23;;;1.53;;
3159;SDS011;1591;51.486;7.146;2022-11-18T02:39:51;2.10;;;1.60;;
3159;SDS011;1591;51.486;7.146;2022-11-18T02:42:27;2.73;;;1.53;;
3159;SDS011;1591;51.486;7.146;2022-11-18T02:45:01;6.50;;;1.97;;
3159;SDS011;1591;51.486;7.146;2022-11-18T02:47:33;3.03;;;1.60;;
3159;SDS011;1591;51.486;7.146;2022-11-18T02:50:03;2.00;;;1.50;;
3159;SDS011;1591;51.486;7.146;2022-11-18T02:52:34;1.97;;;1.70;;
3159;SDS011;1591;51.486;7.146;2022-11-18T02:55:05;2.10;;;1.57;;
3159;SDS011;1591;51.486;7.146;2022-11-18T02:57:36;3.37;;;1.57;;
3159;SDS011;1591;51.486;7.146;2022-11-18T03:00:10;2.67;;;1.90;;
3159;SDS011;1591;51.486;7.146;2022-11-18T03:02:39;2.93;;;1.87;;
3159;SDS011;1591;51.486;7.146;2022-11-18T03:05:07;2.77;;;1.60;;
3159;SDS011;1591;51.486;7.146;2022-11-18T03:07:41;6.23;;;2.10;;
3159;SDS011;1591;51.486;7.146;2022-11-18T03:10:11;5.27;;;2.20;;
3159;SDS011;1591;51.486;7.146;2022-11-18T03:12:39;2.80;;;2.10;;
3159;SDS011;1591;51.486;7.146;2022-11-18T03:15:17;3.63;;;2.43;;
3159;SDS011;1591;51.486;7.146;2022-11-18T03:17:54;4.83;;;1.90;;
3159;SDS011;1591;51.486;7.146;2022-11-18T03:20:30;4.13;;;2.30;;
3159;SDS011;1591;51.486;7.146;2022-11-18T03:23:03;3.17;;;1.63;;
3159;SDS011;1591;51.486;7.146;2022-11-18T03:25:39;3.13;;;2.00;;
3159;SDS011;1591;51.486;7.146;2022-11-18T03:28:13;5.57;;;2.10;;
3159;SDS011;1591;51.486;7.146;2022-11-18T03:30:52;3.30;;;1.90;;
3159;SDS011;1591;51.486;7.146;2022-11-18T03:33:23;3.30;;;1.83;;
3159;SDS011;1591;51.486;7.146;2022-11-18T03:35:59;7.53;;;2.10;;
3159;SDS011;1591;51.486;7.146;2022-11-18T03:38:30;4.10;;;2.33;;
3159;SDS011;1591;51.486;7.146;2022-11-18T03:41:02;6.00;;;2.53;;
3159;SDS011;1591;51.486;7.146;2022-11-18T03:43:36;5.93;;;2.20;;
3159;SDS011;1591;51.486;7.146;2022-11-18T03:46:08;6.93;;;2.63;;
3159;SDS011;1591;51.486;7.146;2022-11-18T03:48:40;5.13;;;2.50;;
3159;SDS011;1591;51.486;7.146;2022-11-18T03:51:15;8.77;;;2.80;;
3159;SDS011;1591;51.486;7.146;2022-11-18T03:53:46;2.87;;;2.20;;
3159;SDS011;1591;51.486;7.146;2022-11-18T03:56:20;6.57;;;2.60;;
3159;SDS011;1591;51.486;7.146;2022-11-18T03:58:52;6.43;;;2.63;;
3159;SDS011;1591;51.486;7.146;2022-11-18T04:01:28;3.40;;;3.10;;
3159;SDS011;1591;51.486;7.146;2022-11-18T04:04:00;5.43;;;3.00;;
3159;SDS011;1591;51.486;7.146;2022-11-18T04:06:29;4.20;;;2.13;;
3159;SDS011;1591;51.486;7.146;2022-11-18T04:09:02;5.87;;;2.60;;
3159;SDS011;1591;51.486;7.146;2022-11-18T04:11:39;4.27;;;2.00;;
3159;SDS011;1591;51.486;7.146;2022-11-18T04:14:29;3.57;;;2.40;;
3159;SDS011;1591;51.486;7.146;2022-11-18T04:17:02;6.47;;;2.40;;
3159;SDS011;1591;51.486;7.146;2022-11-18T04:19:33;3.53;;;1.93;;
3159;SDS011;1591;51.486;7.146;2022-11-18T04:22:00;3.80;;;2.40;;
3159;SDS011;1591;51.486;7.146;2022-11-18T04:24:27;2.33;;;1.80;;
3159;SDS011;1591;51.486;7.146;2022-11-18T04:26:54;9.13;;;2.00;;
3159;SDS011;1591;51.486;7.146;2022-11-18T04:29:21;3.70;;;2.27;;
3159;SDS011;1591;51.486;7.146;2022-11-18T04:31:48;6.73;;;2.27;;
3159;SDS011;1591;51.486;7.146;2022-11-18T04:34:16;3.23;;;1.90;;
3159;SDS011;1591;51.486;7.146;2022-11-18T04:36:43;3.63;;;1.97;;
3159;SDS011;1591;51.486;7.146;2022-11-18T04:39:10;3.20;;;2.13;;
3159;SDS011;1591;51.486;7.146;2022-11-18T04:41:37;5.07;;;2.00;;
3159;SDS011;1591;51.486;7.146;2022-11-18T04:44:23;6.30;;;2.10;;
3159;SDS011;1591;51.486;7.146;2022-11-18T04:46:53;3.90;;;2.00;;
3159;SDS011;1591;51.486;7.146;2022-11-18T04:49:23;3.40;;;2.37;;
3159;SDS011;1591;51.486;7.146;2022-11-18T04:51:52;5.47;;;2.50;;
3159;SDS011;1591;51.486;7.146;2022-11-18T04:54:20;5.70;;;2.53;;
3159;SDS011;1591;51.486;7.146;2022-11-18T04:56:49;8.37;;;2.83;;
3159;SDS011;1591;51.486;7.146;2022-11-18T04:59:17;6.30;;;2.63;;
3159;SDS011;1591;51.486;7.146;2022-11-18T05:01:46;5.30;;;2.00;;
3159;SDS011;1591;51.486;7.146;2022-11-18T05:04:14;4.80;;;2.30;;
3159;SDS011;1591;51.486;7.146;2022-11-18T05:06:44;3.70;;;2.07;;
3159;SDS011;1591;51.486;7.146;2022-11-18T05:09:11;2.60;;;1.83;;
3159;SDS011;1591;51.486;7.146;2022-11-18T05:11:39;2.23;;;1.90;;
3159;SDS011;1591;51.486;7.146;2022-11-18T05:14:24;2.33;;;2.10;;
3159;SDS011;1591;51.486;7.146;2022-11-18T05:16:53;5.03;;;2.40;;
3159;SDS011;1591;51.486;7.146;2022-11-18T05:19:21;5.90;;;2.43;;
3159;SDS011;1591;51.486;7.146;2022-11-18T05:21:50;4.00;;;2.60;;
3159;SDS011;1591;51.486;7.146;2022-11-18T05:24:17;2.60;;;2.40;;
3159;SDS011;1591;51.486;7.146;2022-11-18T05:26:48;2.70;;;2.00;;
3159;SDS011;1591;51.486;7.146;2022-11-18T05:29:15;5.80;;;2.80;;
3159;SDS011;1591;51.486;7.146;2022-11-18T05:31:43;4.57;;;3.30;;
3159;SDS011;1591;51.486;7.146;2022-11-18T05:34:10;7.50;;;3.00;;
3159;SDS011;1591;51.486;7.146;2022-11-18T05:36:38;6.87;;;2.57;;
3159;SDS011;1591;51.486;7.146;2022-11-18T05:39:07;4.60;;;2.53;;
3159;SDS011;1591;51.486;7.146;2022-11-18T05:41:34;6.73;;;2.80;;
3159;SDS011;1591;51.486;7.146;2022-11-18T05:44:19;3.87;;;2.67;;
3159;SDS011;1591;51.486;7.146;2022-11-18T05:46:46;3.80;;;2.10;;
3159;SDS011;1591;51.486;7.146;2022-11-18T05:49:13;3.97;;;2.40;;
3159;SDS011;1591;51.486;7.146;2022-11-18T05:51:40;2.93;;;2.40;;
3159;SDS011;1591;51.486;7.146;2022-11-18T05:54:08;2.63;;;2.03;;
3159;SDS011;1591;51.486;7.146;2022-11-18T05:56:38;7.33;;;4.30;;
3159;SDS011;1591;51.486;7.146;2022-11-18T05:59:09;4.30;;;2.20;;
3159;SDS011;1591;51.486;7.146;2022-11-18T06:01:37;4.50;;;2.50;;
3159;SDS011;1591;51.486;7.146;2022-11-18T06:04:12;3.93;;;2.30;;
3159;SDS011;1591;51.486;7.146;2022-11-18T06:06:44;3.13;;;2.77;;
3159;SDS011;1591;51.486;7.146;2022-11-18T06:09:14;4.03;;;2.30;;
3159;SDS011;1591;51.486;7.146;2022-11-18T06:11:48;3.00;;;2.20;;
3159;SDS011;1591;51.486;7.146;2022-11-18T06:14:19;2.10;;;2.00;;
3159;SDS011;1591;51.486;7.146;2022-11-18T06:16:51;5.20;;;2.50;;
3159;SDS011;1591;51.486;7.146;2022-11-18T06:19:21;4.60;;;2.27;;
3159;SDS011;1591;51.486;7.146;2022-11-18T06:21:49;3.83;;;2.40;;
3159;SDS011;1591;51.486;7.146;2022-11-18T06:24:17;6.23;;;2.87;;
3159;SDS011;1591;51.486;7.146;2022-11-18T06:26:45;4.60;;;2.80;;
3159;SDS011;1591;51.486;7.146;2022-11-18T06:29:13;6.17;;;2.73;;
3159;SDS011;1591;51.486;7.146;2022-11-18T06:31:42;5.87;;;2.80;;
3159;SDS011;1591;51.486;7.146;2022-11-18T06:34:09;2.37;;;2.20;;
3159;SDS011;1591;51.486;7.146;2022-11-18T06:36:36;7.70;;;3.10;;
3159;SDS011;1591;51.486;7.146;2022-11-18T06:39:03;4.17;;;2.77;;
3159;SDS011;1591;51.486;7.146;2022-11-18T06:41:33;6.63;;;2.67;;
3159;SDS011;1591;51.486;7.146;2022-11-18T06:44:00;6.10;;;2.73;;
3159;SDS011;1591;51.486;7.146;2022-11-18T06:46:26;5.47;;;2.60;;
3159;SDS011;1591;51.486;7.146;2022-11-18T06:49:11;6.13;;;2.70;;
3159;SDS011;1591;51.486;7.146;2022-11-18T06:51:38;3.93;;;2.70;;
3159;SDS011;1591;51.486;7.146;2022-11-18T06:54:05;3.90;;;2.57;;
3159;SDS011;1591;51.486;7.146;2022-11-18T06:56:34;7.90;;;3.13;;
3159;SDS011;1591;51.486;7.146;2022-11-18T06:59:01;6.27;;;3.00;;
3159;SDS011;1591;51.486;7.146;2022-11-18T07:01:29;4.73;;;2.97;;
3159;SDS011;1591;51.486;7.146;2022-11-18T07:03:57;4.03;;;2.77;;
3159;SDS011;1591;51.486;7.146;2022-11-18T07:06:26;5.23;;;3.00;;
3159;SDS011;1591;51.486;7.146;2022-11-18T07:08:55;7.80;;;3.10;;
3159;SDS011;1591;51.486;7.146;2022-11-18T07:11:22;4.00;;;2.93;;
3159;SDS011;1591;51.486;7.146;2022-11-18T07:13:54;4.07;;;3.33;;
3159;SDS011;1591;51.486;7.146;2022-11-18T07:16:22;9.23;;;3.30;;
3159;SDS011;1591;51.486;7.146;2022-11-18T07:18:51;6.37;;;3.20;;
3159;SDS011;1591;51.486;7.146;2022-11-18T07:21:20;5.73;;;3.00;;
3159;SDS011;1591;51.486;7.146;2022-11-18T07:23:49;5.13;;;3.20;;
3159;SDS011;1591;51.486;7.146;2022-11-18T07:26:17;6.50;;;3.23;;
3159;SDS011;1591;51.486;7.146;2022-11-18T07:28:44;5.60;;;3.23;;
3159;SDS011;1591;51.486;7.146;2022-11-18T07:31:13;6.37;;;3.10;;
3159;SDS011;1591;51.486;7.146;2022-11-18T07:33:42;5.80;;;3.20;;
3159;SDS011;1591;51.486;7.146;2022-11-18T07:36:11;7.20;;;3.17;;
3159;SDS011;1591;51.486;7.146;2022-11-18T07:38:40;6.53;;;3.20;;
3159;SDS011;1591;51.486;7.146;2022-11-18T07:41:09;6.20;;;3.37;;
3159;SDS011;1591;51.486;7.146;2022-11-18T07:43:38;6.33;;;3.27;;
3159;SDS011;1591;51.486;7.146;2022-11-18T07:46:09;6.27;;;3.30;;
3159;SDS011;1591;51.486;7.146;2022-11-18T07:48:41;4.80;;;2.73;;
3159;SDS011;1591;51.486;7.146;2022-11-18T07:51:13;7.10;;;3.77;;
3159;SDS011;1591;51.486;7.146;2022-11-18T07:53:44;6.53;;;3.70;;
3159;SDS011;1591;51.486;7.146;2022-11-18T07:56:12;7.87;;;3.10;;
3159;SDS011;1591;51.486;7.146;2022-11-18T07:58:40;9.70;;;3.30;;
3159;SDS011;1591;51.486;7.146;2022-11-18T08:01:08;6.37;;;3.80;;
3159;SDS011;1591;51.486;7.146;2022-11-18T08:03:38;5.00;;;3.43;;
3159;SDS011;1591;51.486;7.146;2022-11-18T08:06:07;4.77;;;2.80;;
3159;SDS011;1591;51.486;7.146;2022-11-18T08:08:37;8.60;;;3.80;;
3159;SDS011;1591;51.486;7.146;2022-11-18T08:11:06;4.67;;;3.30;;
3159;SDS011;1591;51.486;7.146;2022-11-18T08:13:35;6.73;;;3.60;;
3159;SDS011;1591;51.486;7.146;2022-11-18T08:16:03;4.60;;;3.00;;
3159;SDS011;1591;51.486;7.146;2022-11-18T08:18:38;8.07;;;3.60;;
3159;SDS011;1591;51.486;7.146;2022-11-18T08:21:05;6.03;;;2.80;;
3159;SDS011;1591;51.486;7.146;2022-11-18T08:23:33;4.13;;;2.77;;
3159;SDS011;1591;51.486;7.146;2022-11-18T08:26:01;3.80;;;2.70;;
3159;SDS011;1591;51.486;7.146;2022-11-18T08:28:32;4.77;;;3.03;;
3159;SDS011;1591;51.486;7.146;2022-11-18T08:31:00;6.20;;;3.07;;
3159;SDS011;1591;51.486;7.146;2022-11-18T08:33:35;5.43;;;2.90;;
3159;SDS011;1591;51.486;7.146;2022-11-18T08:36:05;8.00;;;3.10;;
3159;SDS011;1591;51.486;7.146;2022-11-18T08:38:34;4.70;;;3.17;;
3159;SDS011;1591;51.486;7.146;2022-11-18T08:41:02;2.73;;;2.53;;
3159;SDS011;1591;51.486;7.146;2022-11-18T08:43:31;4.40;;;3.00;;
3159;SDS011;1591;51.486;7.146;2022-11-18T08:45:58;4.17;;;2.67;;
3159;SDS011;1591;51.486;7.146;2022-11-18T08:48:25;6.13;;;3.53;;
3159;SDS011;1591;51.486;7.146;2022-11-18T08:50:52;5.87;;;3.30;;
3159;SDS011;1591;51.486;7.146;2022-11-18T08:53:21;8.60;;;3.83;;
3159;SDS011;1591;51.486;7.146;2022-11-18T08:55:53;6.13;;;3.50;;
3159;SDS011;1591;51.486;7.146;2022-11-18T08:58:22;6.53;;;3.10;;
3159;SDS011;1591;51.486;7.146;2022-11-18T09:00:50;6.37;;;3.60;;
3159;SDS011;1591;51.486;7.146;2022-11-18T09:03:17;7.13;;;3.77;;
3159;SDS011;1591;51.486;7.146;2022-11-18T09:05:44;7.07;;;3.30;;
3159;SDS011;1591;51.486;7.146;2022-11-18T09:08:11;6.70;;;4.00;;
3159;SDS011;1591;51.486;7.146;2022-11-18T09:10:40;17.83;;;4.67;;
3159;SDS011;1591;51.486;7.146;2022-11-18T09:13:07;4.70;;;3.20;;
3159;SDS011;1591;51.486;7.146;2022-11-18T09:15:34;4.80;;;3.30;;
3159;SDS011;1591;51.486;7.146;2022-11-18T09:18:01;5.33;;;2.93;;
3159;SDS011;1591;51.486;7.146;2022-11-18T09:20:28;5.07;;;3.17;;
3159;SDS011;1591;51.486;7.146;2022-11-18T09:22:55;4.50;;;2.73;;
3159;SDS011;1591;51.486;7.146;2022-11-18T09:25:22;6.07;;;3.00;;
3159;SDS011;1591;51.486;7.146;2022-11-18T09:27:51;4.20;;;3.03;;
3159;SDS011;1591;51.486;7.146;2022-11-18T09:30:19;7.17;;;3.20;;
3159;SDS011;1591;51.486;7.146;2022-11-18T09:32:46;3.87;;;2.70;;
3159;SDS011;1591;51.486;7.146;2022-11-18T09:35:14;10.57;;;3.50;;
3159;SDS011;1591;51.486;7.146;2022-11-18T09:37:41;4.33;;;3.23;;
3159;SDS011;1591;51.486;7.146;2022-11-18T09:40:12;5.27;;;3.20;;
3159;SDS011;1591;51.486;7.146;2022-11-18T09:42:45;4.00;;;3.20;;
3159;SDS011;1591;51.486;7.146;2022-11-18T09:45:26;6.00;;;2.90;;
3159;SDS011;1591;51.486;7.146;2022-11-18T09:48:01;5.70;;;3.43;;
3159;SDS011;1591;51.486;7.146;2022-11-18T09:50:42;6.63;;;3.63;;
3159;SDS011;1591;51.486;7.146;2022-11-18T09:53:11;5.57;;;3.13;;
3159;SDS011;1591;51.486;7.146;2022-11-18T09:55:46;5.53;;;2.90;;
3159;SDS011;1591;51.486;7.146;2022-11-18T09:58:17;6.97;;;3.40;;
3159;SDS011;1591;51.486;7.146;2022-11-18T10:00:52;3.20;;;2.90;;
3159;SDS011;1591;51.486;7.146;2022-11-18T10:03:21;4.87;;;3.07;;
3159;SDS011;1591;51.486;7.146;2022-11-18T10:05:54;7.33;;;3.10;;
3159;SDS011;1591;51.486;7.146;2022-11-18T10:08:27;7.53;;;3.60;;
3159;SDS011;1591;51.486;7.146;2022-11-18T10:10:59;5.23;;;3.00;;
3159;SDS011;1591;51.486;7.146;2022-11-18T10:13:38;8.47;;;3.17;;
3159;SDS011;1591;51.486;7.146;2022-11-18T10:16:26;4.13;;;3.10;;
3159;SDS011;1591;51.486;7.146;2022-11-18T10:19:08;4.17;;;3.10;;
3159;SDS011;1591;51.486;7.146;2022-11-18T10:21:54;8.57;;;3.00;;
3159;SDS011;1591;51.486;7.146;2022-11-18T10:24:35;4.13;;;2.67;;
3159;SDS011;1591;51.486;7.146;2022-11-18T10:27:08;5.87;;;3.50;;
3159;SDS011;1591;51.486;7.146;2022-11-18T10:29:43;5.20;;;3.40;;
3159;SDS011;1591;51.486;7.146;2022-11-18T10:32:13;3.70;;;3.03;;
3159;SDS011;1591;51.486;7.146;2022-11-18T10:34:48;4.33;;;2.87;;
3159;SDS011;1591;51.486;7.146;2022-11-18T10:37:22;5.40;;;2.60;;
3159;SDS011;1591;51.486;7.146;2022-11-18T10:39:54;5.40;;;2.70;;
3159;SDS011;1591;51.486;7.146;2022-11-18T10:42:24;6.83;;;3.40;;
3159;SDS011;1591;51.486;7.146;2022-11-18T10:45:01;7.83;;;2.90;;
3159;SDS011;1591;51.486;7.146;2022-11-18T10:47:55;6.20;;;3.20;;
3159;SDS011;1591;51.486;7.146;2022-11-18T10:50:33;4.23;;;2.70;;
3159;SDS011;1591;51.486;7.146;2022-11-18T10:53:02;7.47;;;2.30;;
3159;SDS011;1591;51.486;7.146;2022-11-18T10:55:31;8.00;;;2.70;;
3159;SDS011;1591;51.486;7.146;2022-11-18T10:58:02;5.33;;;2.60;;
3159;SDS011;1591;51.486;7.146;2022-11-18T11:00:44;3.20;;;2.70;;
3159;SDS011;1591;51.486;7.146;2022-11-18T11:03:24;5.73;;;2.77;;
3159;SDS011;1591;51.486;7.146;2022-11-18T11:09:06;3.90;;;2.50;;
3159;SDS011;1591;51.486;7.146;2022-11-18T11:11:37;6.23;;;2.57;;
3159;SDS011;1591;51.486;7.146;2022-11-18T11:14:20;6.00;;;2.60;;
3159;SDS011;1591;51.486;7.146;2022-11-18T11:17:01;3.43;;;2.50;;
3159;SDS011;1591;51.486;7.146;2022-11-18T11:19:38;9.17;;;4.37;;
3159;SDS011;1591;51.486;7.146;2022-11-18T11:22:14;3.70;;;2.30;;
3159;SDS011;1591;51.486;7.146;2022-11-18T11:24:41;15.30;;;2.33;;
3159;SDS011;1591;51.486;7.146;2022-11-18T11:27:14;4.33;;;2.00;;
3159;SDS011;1591;51.486;7.146;2022-11-18T11:30:12;5.47;;;2.20;;
3159;SDS011;1591;51.486;7.146;2022-11-18T11:33:01;45.43;;;4.30;;
3159;SDS011;1591;51.486;7.146;2022-11-18T11:36:00;3.67;;;2.10;;
3159;SDS011;1591;51.486;7.146;2022-11-18T11:38:48;4.33;;;1.90;;
3159;SDS011;1591;51.486;7.146;2022-11-18T11:41:25;3.03;;;2.07;;
3159;SDS011;1591;51.486;7.146;2022-11-18T11:44:08;7.60;;;2.00;;
3159;SDS011;1591;51.486;7.146;2022-11-18T11:47:08;4.83;;;2.17;;
3159;SDS011;1591;51.486;7.146;2022-11-18T11:50:07;4.33;;;2.30;;
3159;SDS011;1591;51.486;7.146;2022-11-18T11:52:44;5.90;;;2.20;;
3159;SDS011;1591;51.486;7.146;2022-11-18T11:55:26;5.60;;;2.10;;
3159;SDS011;1591;51.486;7.146;2022-11-18T11:58:05;6.93;;;2.40;;
3159;SDS011;1591;51.486;7.146;2022-11-18T12:00:51;6.57;;;1.90;;
3159;SDS011;1591;51.486;7.146;2022-11-18T12:03:33;13.30;;;2.40;;
3159;SDS011;1591;51.486;7.146;2022-11-18T12:06:13;6.07;;;2.07;;
3159;SDS011;1591;51.486;7.146;2022-11-18T12:08:44;5.90;;;2.20;;
3159;SDS011;1591;51.486;7.146;2022-11-18T12:11:28;9.73;;;7.00;;
3159;SDS011;1591;51.486;7.146;2022-11-18T12:14:05;5.03;;;2.10;;
3159;SDS011;1591;51.486;7.146;2022-11-18T12:16:41;8.40;;;2.70;;
3159;SDS011;1591;51.486;7.146;2022-11-18T12:19:18;6.17;;;2.10;;
3159;SDS011;1591;51.486;7.146;2022-11-18T12:21:52;6.23;;;1.97;;
3159;SDS011;1591;51.486;7.146;2022-11-18T12:24:29;5.03;;;2.00;;
3159;SDS011;1591;51.486;7.146;2022-11-18T12:27:00;5.40;;;1.90;;
3159;SDS011;1591;51.486;7.146;2022-11-18T12:29:35;11.03;;;2.13;;
3159;SDS011;1591;51.486;7.146;2022-11-18T12:32:25;6.73;;;2.00;;
3159;SDS011;1591;51.486;7.146;2022-11-18T12:34:59;4.30;;;1.80;;
3159;SDS011;1591;51.486;7.146;2022-11-18T12:37:39;6.80;;;2.40;;
3159;SDS011;1591;51.486;7.146;2022-11-18T12:40:31;7.00;;;2.13;;
3159;SDS011;1591;51.486;7.146;2022-11-18T12:43:10;3.90;;;1.87;;
3159;SDS011;1591;51.486;7.146;2022-11-18T12:52:48;12.53;;;2.30;;
3159;SDS011;1591;51.486;7.146;2022-11-18T12:55:20;6.40;;;2.07;;
3159;SDS011;1591;51.486;7.146;2022-11-18T12:57:57;3.70;;;1.90;;
3159;SDS011;1591;51.486;7.146;2022-11-18T13:00:28;4.40;;;1.87;;
3159;SDS011;1591;51.486;7.146;2022-11-18T13:03:20;5.00;;;1.83;;
3159;SDS011;1591;51.486;7.146;2022-11-18T13:05:57;4.50;;;2.00;;
3159;SDS011;1591;51.486;7.146;2022-11-18T13:08:33;7.20;;;2.10;;
3159;SDS011;1591;51.486;7.146;2022-11-18T13:11:06;5.63;;;2.40;;
3159;SDS011;1591;51.486;7.146;2022-11-18T13:13:57;6.10;;;1.90;;
3159;SDS011;1591;51.486;7.146;2022-11-18T13:16:42;8.63;;;2.10;;
3159;SDS011;1591;51.486;7.146;2022-11-18T13:19:27;7.83;;;2.40;;
3159;SDS011;1591;51.486;7.146;2022-11-18T13:21:54;8.80;;;2.37;;
3159;SDS011;1591;51.486;7.146;2022-11-18T13:24:44;4.97;;;3.03;;
3159;SDS011;1591;51.486;7.146;2022-11-18T13:27:17;7.97;;;3.87;;
3159;SDS011;1591;51.486;7.146;2022-11-18T13:29:56;2.63;;;1.80;;
3159;SDS011;1591;51.486;7.146;2022-11-18T13:32:29;3.23;;;1.90;;
3159;SDS011;1591;51.486;7.146;2022-11-18T13:34:56;8.67;;;2.40;;
3159;SDS011;1591;51.486;7.146;2022-11-18T13:37:32;5.90;;;3.10;;
3159;SDS011;1591;51.486;7.146;2022-11-18T13:40:01;7.67;;;2.53;;
3159;SDS011;1591;51.486;7.146;2022-11-18T13:42:28;6.80;;;2.80;;
3159;SDS011;1591;51.486;7.146;2022-11-18T13:44:57;7.17;;;2.30;;
3159;SDS011;1591;51.486;7.146;2022-11-18T13:47:26;6.90;;;2.50;;
3159;SDS011;1591;51.486;7.146;2022-11-18T13:50:04;17.00;;;2.40;;
3159;SDS011;1591;51.486;7.146;2022-11-18T13:52:42;7.60;;;2.20;;
3159;SDS011;1591;51.486;7.146;2022-11-18T13:55:17;4.67;;;2.10;;
3159;SDS011;1591;51.486;7.146;2022-11-18T13:57:48;7.47;;;2.60;;
3159;SDS011;1591;51.486;7.146;2022-11-18T14:00:21;4.83;;;2.93;;
3159;SDS011;1591;51.486;7.146;2022-11-18T14:02:53;7.50;;;3.20;;
3159;SDS011;1591;51.486;7.146;2022-11-18T14:05:23;10.50;;;3.00;;
3159;SDS011;1591;51.486;7.146;2022-11-18T14:07:54;12.40;;;3.80;;
3159;SDS011;1591;51.486;7.146;2022-11-18T14:10:32;11.40;;;6.77;;
3159;SDS011;1591;51.486;7.146;2022-11-18T14:13:13;11.13;;;4.00;;
3159;SDS011;1591;51.486;7.146;2022-11-18T14:15:47;5.57;;;3.27;;
3159;SDS011;1591;51.486;7.146;2022-11-18T14:18:19;5.93;;;2.67;;
3159;SDS011;1591;51.486;7.146;2022-11-18T14:20:54;5.50;;;2.10;;
3159;SDS011;1591;51.486;7.146;2022-11-18T14:23:25;5.47;;;2.63;;
3159;SDS011;1591;51.486;7.146;2022-11-18T14:25:55;7.97;;;3.07;;
3159;SDS011;1591;51.486;7.146;2022-11-18T14:28:25;6.27;;;3.43;;
3159;SDS011;1591;51.486;7.146;2022-11-18T14:30:59;8.30;;;3.10;;
3159;SDS011;1591;51.486;7.146;2022-11-18T14:33:29;11.17;;;4.23;;
3159;SDS011;1591;51.486;7.146;2022-11-18T14:35:58;9.57;;;4.03;;
3159;SDS011;1591;51.486;7.146;2022-11-18T14:38:28;8.07;;;2.70;;
3159;SDS011;1591;51.486;7.146;2022-11-18T14:41:11;7.27;;;2.70;;
3159;SDS011;1591;51.486;7.146;2022-11-18T14:44:01;6.63;;;2.93;;
3159;SDS011;1591;51.486;7.146;2022-11-18T14:46:29;7.53;;;2.20;;
3159;SDS011;1591;51.486;7.146;2022-11-18T14:48:58;7.90;;;3.00;;
3159;SDS011;1591;51.486;7.146;2022-11-18T14:51:29;3.37;;;2.10;;
3159;SDS011;1591;51.486;7.146;2022-11-18T14:53:57;7.43;;;2.53;;
3159;SDS011;1591;51.486;7.146;2022-11-18T14:56:26;8.70;;;2.70;;
3159;SDS011;1591;51.486;7.146;2022-11-18T14:58:55;6.63;;;2.20;;
3159;SDS011;1591;51.486;7.146;2022-11-18T15:01:23;8.67;;;3.57;;
3159;SDS011;1591;51.486;7.146;2022-11-18T15:03:51;8.27;;;2.57;;
3159;SDS011;1591;51.486;7.146;2022-11-18T15:06:19;8.80;;;3.63;;
3159;SDS011;1591;51.486;7.146;2022-11-18T15:08:47;8.50;;;3.43;;
3159;SDS011;1591;51.486;7.146;2022-11-18T15:11:17;8.70;;;3.40;;
3159;SDS011;1591;51.486;7.146;2022-11-18T15:13:45;14.17;;;3.70;;
3159;SDS011;1591;51.486;7.146;2022-11-18T15:16:14;9.53;;;4.20;;
3159;SDS011;1591;51.486;7.146;2022-11-18T15:18:45;6.43;;;3.00;;
3159;SDS011;1591;51.486;7.146;2022-11-18T15:21:15;8.23;;;4.13;;
3159;SDS011;1591;51.486;7.146;2022-11-18T15:23:42;5.20;;;3.67;;
3159;SDS011;1591;51.486;7.146;2022-11-18T15:26:13;4.43;;;3.33;;
3159;SDS011;1591;51.486;7.146;2022-11-18T15:28:46;7.63;;;3.10;;
3159;SDS011;1591;51.486;7.146;2022-11-18T15:31:14;9.97;;;4.80;;
3159;SDS011;1591;51.486;7.146;2022-11-18T15:33:42;7.90;;;5.10;;
3159;SDS011;1591;51.486;7.146;2022-11-18T15:36:11;10.93;;;4.10;;
3159;SDS011;1591;51.486;7.146;2022-11-18T15:38:40;9.43;;;4.10;;
3159;SDS011;1591;51.486;7.146;2022-11-18T15:41:11;7.40;;;3.23;;
3159;SDS011;1591;51.486;7.146;2022-11-18T15:43:42;11.43;;;3.97;;
3159;SDS011;1591;51.486;7.146;2022-11-18T15:46:11;15.57;;;4.30;;
3159;SDS011;1591;51.486;7.146;2022-11-18T15:48:38;9.60;;;3.80;;
3159;SDS011;1591;51.486;7.146;2022-11-18T15:51:05;7.73;;;3.53;;
3159;SDS011;1591;51.486;7.146;2022-11-18T15:53:33;8.33;;;3.60;;
3159;SDS011;1591;51.486;7.146;2022-11-18T15:56:13;7.47;;;4.13;;
3159;SDS011;1591;51.486;7.146;2022-11-18T15:58:51;33.70;;;19.43;;